createdAt,value
2019-06-08T00:02:07.760Z,15.30
2019-06-08T00:04:36.613Z,15.20
2019-06-08T00:07:05.449Z,15.10
2019-06-08T00:09:34.307Z,15.10
2019-06-08T00:12:03.116Z,15.10
2019-06-08T00:14:31.941Z,15.10
2019-06-08T00:17:00.822Z,15.10
2019-06-08T00:19:29.743Z,15.10
2019-06-08T00:21:58.532Z,15.10
2019-06-08T00:24:27.491Z,15.10
2019-06-08T00:26:56.502Z,15.10
2019-06-08T00:29:25.337Z,15.10
2019-06-08T00:31:54.176Z,15.10
2019-06-08T00:34:23.061Z,15.10
2019-06-08T00:36:51.872Z,15.00
2019-06-08T00:39:20.940Z,15.00
2019-06-08T00:41:50.064Z,14.90
2019-06-08T00:44:19.233Z,14.90
2019-06-08T00:46:48.240Z,14.90
2019-06-08T00:49:17.148Z,14.80
2019-06-08T00:51:45.967Z,14.80
2019-06-08T00:54:14.901Z,14.80
2019-06-08T00:56:43.812Z,14.80
2019-06-08T00:59:12.829Z,14.80
2019-06-08T01:01:41.636Z,14.70
2019-06-08T01:04:10.538Z,14.70
2019-06-08T01:06:39.324Z,14.80
2019-06-08T01:09:08.164Z,14.80
2019-06-08T01:11:37.011Z,14.80
2019-06-08T01:14:06.858Z,14.90
2019-06-08T01:16:35.612Z,14.90
2019-06-08T01:19:04.588Z,14.90
2019-06-08T01:21:33.411Z,15.00
2019-06-08T01:24:02.228Z,15.00
2019-06-08T01:26:31.188Z,15.00
2019-06-08T01:29:00.087Z,15.00
2019-06-08T01:31:28.988Z,15.00
2019-06-08T01:33:57.821Z,15.00
2019-06-08T01:36:27.502Z,15.00
2019-06-08T01:38:56.435Z,15.10
2019-06-08T01:41:25.501Z,15.00
2019-06-08T01:43:54.457Z,15.00
2019-06-08T01:46:23.835Z,15.10
2019-06-08T01:48:52.859Z,15.10
2019-06-08T01:51:22.510Z,15.10
2019-06-08T01:53:51.355Z,15.10
2019-06-08T01:56:22.943Z,15.10
2019-06-08T01:58:51.712Z,15.10
2019-06-08T02:01:20.572Z,15.00
2019-06-08T02:03:49.473Z,15.10
2019-06-08T02:06:18.474Z,15.10
2019-06-08T02:08:47.515Z,15.10
2019-06-08T02:11:16.320Z,15.00
2019-06-08T02:13:47.292Z,15.10
2019-06-08T02:16:16.223Z,15.00
2019-06-08T02:18:50.840Z,15.00
2019-06-08T02:21:15.664Z,15.00
2019-06-08T02:23:44.467Z,15.00
2019-06-08T02:26:13.368Z,15.00
2019-06-08T02:28:42.364Z,15.00
2019-06-08T02:31:11.322Z,15.00
2019-06-08T02:33:40.459Z,14.90
2019-06-08T02:36:09.714Z,15.00
2019-06-08T02:38:39.603Z,15.00
2019-06-08T02:41:08.549Z,15.00
2019-06-08T02:43:38.328Z,14.90
2019-06-08T02:46:08.065Z,14.80
2019-06-08T02:48:56.304Z,14.70
2019-06-08T02:51:07.964Z,14.60
2019-06-08T02:53:38.261Z,14.40
2019-06-08T02:56:07.529Z,14.30
2019-06-08T02:58:39.075Z,14.30
2019-06-08T03:01:08.571Z,14.20
2019-06-08T03:03:38.917Z,14.10
2019-06-08T03:06:08.489Z,14.20
2019-06-08T03:08:39.244Z,14.20
2019-06-08T03:11:08.478Z,14.20
2019-06-08T03:13:38.411Z,14.10
2019-06-08T03:16:08.032Z,14.00
2019-06-08T03:18:38.326Z,14.00
2019-06-08T03:21:07.417Z,13.90
2019-06-08T03:23:36.453Z,13.90
2019-06-08T03:26:06.945Z,13.90
2019-06-08T03:28:37.369Z,13.90
2019-06-08T03:31:06.311Z,13.90
2019-06-08T03:33:40.033Z,13.90
2019-06-08T03:36:05.668Z,14.00
2019-06-08T03:38:37.485Z,14.10
2019-06-08T03:41:06.693Z,14.10
2019-06-08T03:43:37.406Z,14.20
2019-06-08T03:46:05.958Z,14.30
2019-06-08T03:48:35.019Z,14.20
2019-06-08T03:51:04.461Z,14.20
2019-06-08T03:53:33.254Z,14.20
2019-06-08T03:56:02.042Z,14.20
2019-06-08T03:58:33.971Z,14.20
2019-06-08T04:01:01.458Z,14.30
2019-06-08T04:03:30.393Z,14.30
2019-06-08T04:05:59.162Z,14.30
2019-06-08T04:08:27.921Z,14.30
2019-06-08T04:11:00.835Z,14.30
2019-06-08T04:13:27.370Z,14.30
2019-06-08T04:15:56.162Z,14.30
2019-06-08T04:18:24.929Z,14.30
2019-06-08T04:20:53.701Z,14.30
2019-06-08T04:23:22.456Z,14.30
2019-06-08T04:25:51.318Z,14.30
2019-06-08T04:28:20.065Z,14.30
2019-06-08T04:30:49.851Z,14.30
2019-06-08T04:33:19.058Z,14.30
2019-06-08T04:35:47.825Z,14.30
2019-06-08T04:38:16.639Z,14.30
2019-06-08T04:40:45.997Z,14.30
2019-06-08T04:43:15.971Z,14.30
2019-06-08T04:45:45.881Z,14.20
2019-06-08T04:48:15.321Z,14.20
2019-06-08T04:50:45.511Z,14.20
2019-06-08T04:53:14.557Z,14.20
2019-06-08T04:55:45.138Z,14.10
2019-06-08T04:58:14.407Z,14.10
2019-06-08T05:00:45.563Z,14.20
2019-06-08T05:03:13.753Z,14.20
2019-06-08T05:05:43.321Z,14.10
2019-06-08T05:08:12.226Z,14.10
2019-06-08T05:10:41.295Z,14.00
2019-06-08T05:13:10.214Z,14.00
2019-06-08T05:15:39.160Z,14.00
2019-06-08T05:18:08.287Z,14.00
2019-06-08T05:20:39.416Z,14.10
2019-06-08T05:23:07.657Z,14.10
2019-06-08T05:25:36.495Z,14.20
2019-06-08T05:28:08.102Z,14.10
2019-06-08T05:30:37.031Z,14.20
2019-06-08T05:33:05.964Z,14.20
2019-06-08T05:35:34.749Z,14.20
2019-06-08T05:38:03.521Z,14.20
2019-06-08T05:40:32.274Z,14.20
2019-06-08T05:43:01.156Z,14.10
2019-06-08T05:45:32.741Z,14.20
2019-06-08T05:48:01.613Z,14.10
2019-06-08T05:50:30.617Z,14.00
2019-06-08T05:52:59.435Z,14.00
2019-06-08T05:55:29.628Z,14.00
2019-06-08T05:57:58.500Z,14.00
2019-06-08T06:00:27.348Z,14.10
2019-06-08T06:02:56.384Z,14.00
2019-06-08T06:05:25.272Z,14.10
2019-06-08T06:07:54.156Z,14.20
2019-06-08T06:10:23.077Z,14.20
2019-06-08T06:12:51.849Z,14.20
2019-06-08T06:15:20.858Z,14.20
2019-06-08T06:17:49.933Z,14.20
2019-06-08T06:20:19.139Z,14.20
2019-06-08T06:22:49.400Z,14.20
2019-06-08T06:25:19.374Z,14.20
2019-06-08T06:27:49.543Z,14.20
2019-06-08T06:30:18.885Z,14.20
2019-06-08T06:32:47.831Z,14.20
2019-06-08T06:35:16.659Z,14.20
2019-06-08T06:37:45.917Z,14.30
2019-06-08T06:40:14.981Z,14.30
2019-06-08T06:42:43.979Z,14.30
2019-06-08T06:45:13.063Z,14.30
2019-06-08T06:47:42.220Z,14.30
2019-06-08T06:50:11.674Z,14.40
2019-06-08T06:52:40.687Z,14.40
2019-06-08T06:55:09.597Z,14.40
2019-06-08T06:57:38.385Z,14.40
2019-06-08T07:00:07.996Z,14.50
2019-06-08T07:02:36.914Z,14.50
2019-06-08T07:05:06.794Z,14.50
2019-06-08T07:07:35.565Z,14.50
2019-06-08T07:10:05.261Z,14.50
2019-06-08T07:12:34.141Z,14.50
2019-06-08T07:15:03.068Z,14.50
2019-06-08T07:17:31.929Z,14.50
2019-06-08T07:20:00.952Z,14.50
2019-06-08T07:22:30.839Z,14.40
2019-06-08T07:24:59.641Z,14.40
2019-06-08T07:27:32.310Z,14.30
2019-06-08T07:30:01.116Z,14.30
2019-06-08T07:32:29.915Z,14.30
2019-06-08T07:34:59.391Z,14.30
2019-06-08T07:37:28.838Z,14.30
2019-06-08T07:40:00.218Z,14.30
2019-06-08T07:42:33.224Z,14.30
2019-06-08T07:45:02.084Z,14.30
2019-06-08T07:47:31.030Z,14.40
2019-06-08T07:49:59.792Z,14.40
2019-06-08T07:52:28.998Z,14.40
2019-06-08T07:54:58.565Z,14.40
2019-06-08T07:57:27.532Z,14.40
2019-06-08T07:59:56.548Z,14.40
2019-06-08T08:02:25.526Z,14.50
2019-06-08T08:04:54.631Z,14.50
2019-06-08T08:07:23.784Z,14.60
2019-06-08T08:09:53.183Z,14.60
2019-06-08T08:12:21.988Z,14.70
2019-06-08T08:14:51.277Z,14.70
2019-06-08T08:17:20.520Z,14.70
2019-06-08T08:19:49.442Z,14.80
2019-06-08T08:22:23.021Z,14.80
2019-06-08T08:24:53.401Z,14.80
2019-06-08T08:27:19.760Z,14.90
2019-06-08T08:29:48.949Z,14.90
2019-06-08T08:32:19.289Z,14.90
2019-06-08T08:34:50.431Z,14.90
2019-06-08T08:37:19.049Z,14.80
2019-06-08T08:39:50.109Z,14.80
2019-06-08T08:42:18.648Z,14.80
2019-06-08T08:44:48.614Z,14.80
2019-06-08T08:47:18.713Z,14.90
2019-06-08T08:49:47.993Z,14.90
2019-06-08T08:52:17.611Z,14.90
2019-06-08T08:54:47.497Z,15.00
2019-06-08T08:57:18.186Z,15.20
2019-06-08T08:59:50.127Z,15.20
2019-06-08T09:02:21.095Z,15.20
2019-06-08T09:04:48.012Z,15.10
2019-06-08T09:07:18.367Z,15.00
2019-06-08T09:09:48.224Z,14.90
2019-06-08T09:12:18.323Z,14.90
2019-06-08T09:14:47.947Z,14.90
2019-06-08T09:17:18.058Z,15.00
2019-06-08T09:19:48.082Z,15.10
2019-06-08T09:22:18.793Z,15.10
2019-06-08T09:24:48.562Z,15.00
2019-06-08T09:27:18.017Z,14.90
2019-06-08T09:29:48.171Z,14.80
2019-06-08T09:32:17.957Z,14.60
2019-06-08T09:34:48.342Z,14.60
2019-06-08T09:37:18.510Z,14.50
2019-06-08T09:39:48.268Z,14.50
2019-06-08T09:42:20.913Z,14.40
2019-06-08T09:44:48.259Z,14.50
2019-06-08T09:47:18.102Z,14.60
2019-06-08T09:49:48.002Z,14.60
2019-06-08T09:52:18.410Z,14.60
2019-06-08T09:54:48.164Z,14.50
2019-06-08T09:57:18.915Z,14.50
2019-06-08T09:59:48.339Z,14.50
2019-06-08T10:02:18.442Z,14.50
2019-06-08T10:04:48.393Z,14.50
2019-06-08T10:07:18.663Z,14.60
2019-06-08T10:09:50.001Z,14.80
2019-06-08T10:12:18.394Z,15.00
2019-06-08T10:14:48.951Z,15.50
2019-06-08T10:17:20.967Z,16.00
2019-06-08T10:19:50.079Z,16.10
2019-06-08T10:22:18.941Z,16.00
2019-06-08T10:24:48.982Z,15.90
2019-06-08T10:27:18.890Z,15.90
2019-06-08T10:29:48.380Z,16.10
2019-06-08T10:32:19.549Z,16.30
2019-06-08T10:34:48.710Z,16.50
2019-06-08T10:37:18.627Z,16.40
2019-06-08T10:39:47.919Z,16.40
2019-06-08T10:42:18.038Z,16.70
2019-06-08T10:44:46.949Z,17.00
2019-06-08T10:47:16.133Z,17.00
2019-06-08T10:49:45.030Z,17.20
2019-06-08T10:52:13.934Z,17.60
2019-06-08T10:54:42.979Z,17.70
2019-06-08T10:57:11.940Z,18.00
2019-06-08T10:59:40.845Z,18.20
2019-06-08T11:02:13.807Z,18.10
2019-06-08T11:04:43.159Z,17.80
2019-06-08T11:07:15.438Z,17.60
2019-06-08T11:09:41.429Z,17.50
2019-06-08T11:12:14.541Z,17.40
2019-06-08T11:14:40.925Z,17.20
2019-06-08T11:17:11.191Z,17.00
2019-06-08T11:19:40.960Z,16.80
2019-06-08T11:22:14.344Z,16.60
2019-06-08T11:24:40.317Z,16.20
2019-06-08T11:27:12.501Z,15.80
2019-06-08T11:29:42.342Z,15.70
2019-06-08T11:32:12.604Z,15.70
2019-06-08T11:34:41.612Z,15.90
2019-06-08T11:37:12.910Z,16.10
2019-06-08T11:39:41.270Z,16.40
2019-06-08T11:42:12.849Z,16.70
2019-06-08T11:44:40.632Z,16.90
2019-06-08T11:47:11.328Z,17.10
2019-06-08T11:49:39.926Z,17.10
2019-06-08T11:52:09.162Z,17.10
2019-06-08T11:54:41.121Z,17.10
2019-06-08T11:57:11.643Z,17.30
2019-06-08T11:59:42.036Z,17.70
2019-06-08T12:02:13.734Z,18.10
2019-06-08T12:04:41.609Z,18.30
2019-06-08T12:07:12.241Z,18.00
2019-06-08T12:09:41.074Z,17.90
2019-06-08T12:12:17.180Z,17.90
2019-06-08T12:14:40.662Z,17.90
2019-06-08T12:17:13.485Z,18.00
2019-06-08T12:19:40.293Z,17.90
2019-06-08T12:22:11.478Z,17.90
2019-06-08T12:24:42.338Z,18.00
2019-06-08T12:27:22.377Z,18.10
2019-06-08T12:29:40.726Z,18.10
2019-06-08T12:32:12.073Z,18.00
2019-06-08T12:34:40.357Z,17.90
2019-06-08T12:37:14.673Z,17.80
2019-06-08T12:39:39.654Z,17.70
2019-06-08T12:42:14.683Z,17.80
2019-06-08T12:44:39.114Z,17.80
2019-06-08T12:47:12.604Z,17.80
2019-06-08T12:49:40.421Z,18.00
2019-06-08T12:52:12.045Z,18.00
2019-06-08T12:54:39.584Z,18.00
2019-06-08T12:57:13.422Z,18.10
2019-06-08T12:59:40.101Z,18.10
2019-06-08T13:02:14.842Z,18.30
2019-06-08T13:04:40.107Z,18.70
2019-06-08T13:07:10.479Z,18.70
2019-06-08T13:09:39.516Z,18.70
2019-06-08T13:12:09.700Z,18.70
2019-06-08T13:14:38.992Z,18.70
2019-06-08T13:17:08.683Z,18.80
2019-06-08T13:19:38.781Z,18.80
2019-06-08T13:22:09.003Z,18.90
2019-06-08T13:24:37.918Z,19.00
2019-06-08T13:27:06.765Z,19.10
2019-06-08T13:29:35.613Z,19.00
2019-06-08T13:32:04.499Z,19.00
2019-06-08T13:34:33.270Z,19.10
2019-06-08T13:37:02.643Z,19.00
2019-06-08T13:39:31.496Z,18.80
2019-06-08T13:42:00.336Z,18.60
2019-06-08T13:44:30.615Z,18.40
2019-06-08T13:46:59.399Z,18.30
2019-06-08T13:49:30.799Z,18.30
2019-06-08T13:51:58.975Z,18.40
2019-06-08T13:54:30.926Z,18.50
2019-06-08T13:56:59.108Z,18.60
2019-06-08T13:59:30.803Z,18.70
2019-06-08T14:01:59.062Z,18.70
2019-06-08T14:04:28.409Z,18.80
2019-06-08T14:06:58.143Z,18.80
2019-06-08T14:09:31.570Z,18.90
2019-06-08T14:11:58.669Z,18.90
2019-06-08T14:14:29.029Z,19.00
2019-06-08T14:16:58.899Z,19.00
2019-06-08T14:19:31.260Z,19.20
2019-06-08T14:21:59.028Z,19.30
2019-06-08T14:24:32.831Z,19.40
2019-06-08T14:26:58.613Z,19.20
2019-06-08T14:29:28.860Z,19.10
2019-06-08T14:31:58.044Z,19.10
2019-06-08T14:34:29.293Z,19.20
2019-06-08T14:36:59.421Z,19.20
2019-06-08T14:39:31.177Z,19.20
2019-06-08T14:41:59.546Z,19.20
2019-06-08T14:44:32.036Z,19.00
2019-06-08T14:47:01.009Z,18.90
2019-06-08T14:49:34.966Z,19.00
2019-06-08T14:52:01.704Z,19.00
2019-06-08T14:54:34.699Z,19.00
2019-06-08T14:57:01.495Z,19.00
2019-06-08T14:59:31.741Z,19.00
2019-06-08T15:02:00.929Z,18.90
2019-06-08T15:04:36.267Z,19.00
2019-06-08T15:07:00.153Z,19.20
2019-06-08T15:09:29.861Z,19.20
2019-06-08T15:11:58.744Z,19.10
2019-06-08T15:14:29.285Z,19.20
2019-06-08T15:16:59.032Z,19.20
2019-06-08T15:19:29.489Z,19.10
2019-06-08T15:21:58.743Z,19.10
2019-06-08T15:24:30.652Z,19.30
2019-06-08T15:26:58.444Z,19.30
2019-06-08T15:29:29.568Z,19.30
2019-06-08T15:31:58.274Z,19.40
2019-06-08T15:34:29.633Z,19.40
2019-06-08T15:36:58.049Z,19.40
2019-06-08T15:39:29.038Z,19.30
2019-06-08T15:41:59.906Z,19.30
2019-06-08T15:44:30.712Z,19.30
2019-06-08T15:46:58.698Z,19.20
2019-06-08T15:49:29.438Z,19.20
2019-06-08T15:51:58.055Z,19.10
2019-06-08T15:54:30.055Z,19.10
2019-06-08T15:56:58.499Z,19.20
2019-06-08T15:59:28.609Z,19.10
2019-06-08T16:01:57.891Z,19.00
2019-06-08T16:04:27.769Z,19.00
2019-06-08T16:06:57.092Z,19.00
2019-06-08T16:09:26.068Z,18.90
2019-06-08T16:11:54.946Z,18.80
2019-06-08T16:14:24.891Z,18.90
2019-06-08T16:16:53.802Z,19.10
2019-06-08T16:19:22.650Z,19.30
2019-06-08T16:21:51.610Z,19.50
2019-06-08T16:24:20.365Z,19.50
2019-06-08T16:26:53.118Z,19.50
2019-06-08T16:29:19.772Z,19.70
2019-06-08T16:31:49.723Z,19.90
2019-06-08T16:34:18.530Z,19.80
2019-06-08T16:36:47.619Z,19.60
2019-06-08T16:39:16.831Z,19.50
2019-06-08T16:41:45.816Z,19.60
2019-06-08T16:44:14.736Z,19.80
2019-06-08T16:46:43.509Z,20.00
2019-06-08T16:49:12.357Z,20.00
2019-06-08T16:51:41.111Z,19.90
2019-06-08T16:54:09.888Z,19.90
2019-06-08T16:56:38.634Z,19.70
2019-06-08T16:59:07.467Z,19.40
2019-06-08T17:01:36.855Z,19.20
2019-06-08T17:04:05.811Z,19.00
2019-06-08T17:06:35.279Z,19.00
2019-06-08T17:09:05.925Z,19.10
2019-06-08T17:11:34.987Z,19.30
2019-06-08T17:14:03.955Z,19.10
2019-06-08T17:16:34.320Z,19.00
2019-06-08T17:19:03.290Z,18.90
2019-06-08T17:21:32.246Z,18.80
2019-06-08T17:24:01.043Z,18.70
2019-06-08T17:26:30.525Z,18.80
2019-06-08T17:28:59.973Z,18.80
2019-06-08T17:31:28.767Z,18.80
2019-06-08T17:33:57.824Z,18.70
2019-06-08T17:36:26.707Z,18.80
2019-06-08T17:38:55.576Z,18.80
2019-06-08T17:41:24.571Z,18.90
2019-06-08T17:43:53.392Z,18.70
2019-06-08T17:46:22.165Z,18.60
2019-06-08T17:48:50.915Z,18.60
2019-06-08T17:51:19.689Z,18.50
2019-06-08T17:53:48.493Z,18.40
2019-06-08T17:56:17.381Z,18.40
2019-06-08T17:58:46.234Z,18.40
2019-06-08T18:01:15.288Z,18.20
2019-06-08T18:03:44.707Z,18.10
2019-06-08T18:06:13.890Z,18.00
2019-06-08T18:08:44.028Z,18.00
2019-06-08T18:11:13.961Z,18.00
2019-06-08T18:13:44.134Z,18.10
2019-06-08T18:16:13.338Z,18.00
2019-06-08T18:18:43.453Z,18.00
2019-06-08T18:21:12.585Z,17.90
2019-06-08T18:23:42.423Z,17.80
2019-06-08T18:26:12.226Z,17.80
2019-06-08T18:28:42.378Z,17.80
2019-06-08T18:31:11.611Z,17.80
2019-06-08T18:33:43.592Z,17.80
2019-06-08T18:36:11.020Z,17.70
2019-06-08T18:38:41.351Z,17.60
2019-06-08T18:41:11.446Z,17.50
2019-06-08T18:43:42.352Z,17.60
2019-06-08T18:46:10.928Z,17.70
2019-06-08T18:48:42.164Z,17.80
2019-06-08T18:51:12.502Z,17.70
2019-06-08T18:54:02.111Z,17.60
2019-06-08T18:56:11.960Z,17.50
2019-06-08T18:58:42.161Z,17.40
2019-06-08T19:01:11.168Z,17.30
2019-06-08T19:03:43.798Z,17.30
2019-06-08T19:06:11.077Z,17.20
2019-06-08T19:08:42.389Z,17.00
2019-06-08T19:11:10.874Z,16.90
2019-06-08T19:13:41.361Z,16.70
2019-06-08T19:16:10.389Z,16.60
2019-06-08T19:18:43.620Z,16.40
2019-06-08T19:21:10.107Z,16.30
2019-06-08T19:23:41.823Z,16.20
2019-06-08T19:26:09.452Z,16.10
2019-06-08T19:28:42.844Z,16.00
2019-06-08T19:31:10.295Z,16.00
2019-06-08T19:33:40.097Z,15.90
2019-06-08T19:36:09.037Z,15.90
2019-06-08T19:38:39.620Z,15.90
2019-06-08T19:41:08.616Z,15.80
2019-06-08T19:43:39.045Z,15.80
2019-06-08T19:46:08.096Z,15.80
2019-06-08T19:48:39.240Z,15.80
2019-06-08T19:51:07.636Z,15.80
2019-06-08T19:53:41.639Z,15.80
2019-06-08T19:56:07.895Z,15.70
2019-06-08T19:58:50.690Z,15.70
2019-06-08T20:01:07.729Z,15.70
2019-06-08T20:03:37.916Z,15.70
2019-06-08T20:06:06.753Z,15.70
2019-06-08T20:08:37.503Z,15.70
2019-06-08T20:11:08.279Z,15.70
2019-06-08T20:13:37.856Z,15.70
2019-06-08T20:16:08.393Z,15.70
2019-06-08T20:18:38.509Z,15.70
2019-06-08T20:21:10.129Z,15.70
2019-06-08T20:23:38.343Z,15.60
2019-06-08T20:26:08.402Z,15.70
2019-06-08T20:28:37.470Z,15.60
2019-06-08T20:31:07.453Z,15.60
2019-06-08T20:33:37.863Z,15.60
2019-06-08T20:36:08.260Z,15.60
2019-06-08T20:38:41.660Z,15.60
2019-06-08T20:41:08.676Z,15.50
2019-06-08T20:43:38.181Z,15.50
2019-06-08T20:46:08.205Z,15.50
2019-06-08T20:48:37.759Z,15.50
2019-06-08T20:51:07.840Z,15.50
2019-06-08T20:53:38.791Z,15.50
2019-06-08T20:56:07.972Z,15.60
2019-06-08T20:58:37.274Z,15.60
2019-06-08T21:01:07.366Z,15.50
2019-06-08T21:03:36.656Z,15.40
2019-06-08T21:06:07.642Z,15.40
2019-06-08T21:08:37.262Z,15.40
2019-06-08T21:11:08.327Z,15.30
2019-06-08T21:13:37.477Z,15.30
2019-06-08T21:16:07.517Z,15.30
2019-06-08T21:18:37.937Z,15.30
2019-06-08T21:21:08.091Z,15.30
2019-06-08T21:23:37.324Z,15.20
2019-06-08T21:26:07.954Z,15.20
2019-06-08T21:28:38.545Z,15.10
2019-06-08T21:31:08.536Z,15.10
2019-06-08T21:33:37.994Z,15.00
2019-06-08T21:36:08.804Z,15.00
2019-06-08T21:38:37.795Z,15.00
2019-06-08T21:41:08.312Z,14.90
2019-06-08T21:43:37.538Z,14.90
2019-06-08T21:46:07.800Z,14.90
2019-06-08T21:48:38.218Z,14.80
2019-06-08T21:51:08.257Z,14.80
2019-06-08T21:53:38.188Z,14.80
2019-06-08T21:56:07.824Z,14.80
2019-06-08T21:58:37.805Z,14.70
2019-06-08T22:01:07.510Z,14.70
2019-06-08T22:03:38.106Z,14.70
2019-06-08T22:06:07.914Z,14.70
2019-06-08T22:08:37.568Z,14.70
2019-06-08T22:11:08.559Z,14.70
2019-06-08T22:13:37.580Z,14.70
2019-06-08T22:16:08.168Z,14.70
2019-06-08T22:18:38.050Z,14.60
2019-06-08T22:21:08.128Z,14.60
2019-06-08T22:23:37.081Z,14.60
2019-06-08T22:26:08.350Z,14.60
2019-06-08T22:28:37.697Z,14.50
2019-06-08T22:31:07.917Z,14.50
2019-06-08T22:33:37.858Z,14.50
2019-06-08T22:36:09.076Z,14.50
2019-06-08T22:38:37.726Z,14.40
2019-06-08T22:41:08.080Z,14.40
2019-06-08T22:43:37.478Z,14.40
2019-06-08T22:46:08.352Z,14.40
2019-06-08T22:48:38.359Z,14.40
2019-06-08T22:51:08.116Z,14.30
2019-06-08T22:53:38.382Z,14.30
2019-06-08T22:56:08.046Z,14.30
2019-06-08T22:58:37.265Z,14.30
2019-06-08T23:01:11.207Z,14.30
2019-06-08T23:03:36.794Z,14.20
2019-06-08T23:06:08.232Z,14.20
2019-06-08T23:08:37.526Z,14.20
2019-06-08T23:11:08.550Z,14.20
2019-06-08T23:13:37.775Z,14.20
2019-06-08T23:16:08.793Z,14.20
2019-06-08T23:18:37.580Z,14.10
2019-06-08T23:21:08.703Z,14.10
2019-06-08T23:23:38.101Z,14.10
2019-06-08T23:26:10.229Z,14.10
2019-06-08T23:28:37.875Z,14.10
2019-06-08T23:31:19.383Z,14.10
2019-06-08T23:33:38.807Z,14.00
2019-06-08T23:36:44.447Z,14.00
2019-06-08T23:38:38.236Z,14.00
2019-06-08T23:41:09.929Z,13.90
2019-06-08T23:43:38.464Z,13.90
2019-06-08T23:46:08.168Z,13.90
2019-06-08T23:48:37.556Z,13.90
2019-06-08T23:51:09.125Z,13.90
2019-06-08T23:53:38.226Z,13.90
2019-06-08T23:56:11.290Z,13.80
2019-06-08T23:58:37.920Z,13.80
